createdAt,value
2022-12-24T00:01:38.294Z,12.13
2022-12-24T00:04:08.604Z,12.11
2022-12-24T00:06:36.969Z,12.14
2022-12-24T00:09:05.499Z,12.18
2022-12-24T00:11:34.004Z,12.27
2022-12-24T00:14:02.599Z,12.29
2022-12-24T00:16:32.444Z,12.34
2022-12-24T00:19:00.840Z,12.34
2022-12-24T00:21:29.225Z,12.33
2022-12-24T00:23:57.663Z,12.33
2022-12-24T00:26:26.019Z,12.33
2022-12-24T00:28:54.527Z,12.40
2022-12-24T00:31:23.096Z,12.41
2022-12-24T00:33:53.173Z,12.40
2022-12-24T00:36:21.991Z,12.35
2022-12-24T00:38:50.575Z,12.32
2022-12-24T00:41:29.182Z,12.31
2022-12-24T00:44:00.440Z,12.28
2022-12-24T00:46:31.220Z,12.21
2022-12-24T00:49:01.234Z,12.15
2022-12-24T00:51:30.173Z,12.08
2022-12-24T00:53:58.739Z,12.03
2022-12-24T00:56:27.408Z,12.02
2022-12-24T00:58:56.387Z,11.99
2022-12-24T01:01:25.096Z,12.00
2022-12-24T01:04:13.962Z,12.01
2022-12-24T01:06:42.705Z,12.04
2022-12-24T01:09:11.249Z,12.06
2022-12-24T01:11:39.862Z,12.04
2022-12-24T01:14:08.193Z,12.06
2022-12-24T01:16:36.791Z,12.06
2022-12-24T01:19:05.240Z,12.01
2022-12-24T01:21:33.645Z,12.02
2022-12-24T01:24:03.374Z,11.99
2022-12-24T01:26:31.747Z,11.98
2022-12-24T01:29:00.643Z,11.98
2022-12-24T01:31:29.035Z,12.03
2022-12-24T01:33:57.912Z,12.08
2022-12-24T01:36:26.287Z,12.12
2022-12-24T01:38:54.676Z,12.15
2022-12-24T01:41:42.389Z,12.20
2022-12-24T01:44:31.515Z,12.24
2022-12-24T01:47:09.909Z,12.21
2022-12-24T01:49:40.719Z,12.27
2022-12-24T01:52:11.905Z,12.33
2022-12-24T01:54:44.624Z,12.32
2022-12-24T01:57:19.228Z,12.28
2022-12-24T01:59:52.086Z,12.26
2022-12-24T02:02:21.499Z,12.23
2022-12-24T02:04:57.129Z,12.21
2022-12-24T02:07:25.850Z,12.17
2022-12-24T02:09:57.180Z,12.12
2022-12-24T02:12:28.347Z,12.08
2022-12-24T02:14:57.075Z,12.07
2022-12-24T02:17:32.565Z,12.05
2022-12-24T02:20:36.599Z,12.05
2022-12-24T02:23:25.823Z,12.05
2022-12-24T02:26:15.072Z,12.04
2022-12-24T02:29:10.651Z,12.02
2022-12-24T02:31:44.226Z,11.98
2022-12-24T02:34:19.398Z,11.93
2022-12-24T02:36:52.540Z,11.87
2022-12-24T02:39:28.407Z,11.82
2022-12-24T02:42:08.893Z,11.78
2022-12-24T02:44:42.442Z,11.75
2022-12-24T02:47:14.275Z,11.72
2022-12-24T02:49:45.633Z,11.73
2022-12-24T02:52:30.171Z,11.73
2022-12-24T02:54:59.896Z,11.72
2022-12-24T02:57:39.031Z,11.68
2022-12-24T03:00:09.668Z,11.66
2022-12-24T03:03:07.581Z,11.61
2022-12-24T03:05:43.610Z,11.59
2022-12-24T03:08:18.157Z,11.58
2022-12-24T03:10:54.903Z,11.58
2022-12-24T03:13:25.603Z,11.58
2022-12-24T03:15:54.029Z,11.57
2022-12-24T03:18:26.159Z,11.52
2022-12-24T03:21:01.816Z,11.51
2022-12-24T03:23:30.789Z,11.49
2022-12-24T03:26:02.757Z,11.46
2022-12-24T03:28:31.628Z,11.46
2022-12-24T03:31:04.735Z,11.46
2022-12-24T03:33:35.612Z,11.47
2022-12-24T03:36:05.496Z,11.47
2022-12-24T03:38:34.682Z,11.45
2022-12-24T03:41:04.220Z,11.44
2022-12-24T03:43:33.082Z,11.42
2022-12-24T03:46:05.751Z,11.39
2022-12-24T03:48:36.595Z,11.36
2022-12-24T03:51:05.845Z,11.36
2022-12-24T03:53:34.190Z,11.33
2022-12-24T03:56:02.588Z,11.31
2022-12-24T03:58:30.975Z,11.31
2022-12-24T04:00:59.336Z,11.28
2022-12-24T04:03:27.789Z,11.27
2022-12-24T04:06:04.319Z,11.24
2022-12-24T04:08:33.370Z,11.23
2022-12-24T04:11:07.795Z,11.20
2022-12-24T04:13:38.282Z,11.20
2022-12-24T04:16:08.593Z,11.20
2022-12-24T04:18:37.139Z,11.20
2022-12-24T04:21:09.314Z,11.18
2022-12-24T04:23:39.667Z,11.15
2022-12-24T04:26:09.834Z,11.11
2022-12-24T04:28:39.868Z,11.09
2022-12-24T04:31:10.235Z,11.09
2022-12-24T04:33:39.053Z,11.07
2022-12-24T04:36:12.814Z,11.06
2022-12-24T04:38:41.367Z,11.04
2022-12-24T04:41:19.053Z,10.95
2022-12-24T04:43:51.956Z,10.84
2022-12-24T04:46:22.312Z,10.77
2022-12-24T04:48:53.196Z,10.70
2022-12-24T04:51:23.581Z,10.63
2022-12-24T04:53:52.714Z,10.58
2022-12-24T04:56:23.172Z,10.53
2022-12-24T04:58:51.743Z,10.52
2022-12-24T05:01:21.874Z,10.49
2022-12-24T05:03:50.947Z,10.42
2022-12-24T05:06:21.416Z,10.35
2022-12-24T05:08:51.322Z,10.28
2022-12-24T05:11:19.637Z,10.17
2022-12-24T05:13:48.434Z,10.08
2022-12-24T05:16:18.216Z,10.02
2022-12-24T05:18:47.001Z,9.97
2022-12-24T05:21:17.470Z,9.93
2022-12-24T05:24:03.505Z,9.90
2022-12-24T05:26:35.840Z,9.89
2022-12-24T05:29:05.941Z,9.86
2022-12-24T05:31:36.181Z,9.85
2022-12-24T05:34:04.720Z,9.84
2022-12-24T05:36:33.138Z,9.83
2022-12-24T05:39:01.572Z,9.81
2022-12-24T05:41:30.253Z,9.81
2022-12-24T05:43:59.960Z,9.79
2022-12-24T05:46:28.459Z,9.74
2022-12-24T05:48:56.874Z,9.75
2022-12-24T05:51:26.917Z,9.77
2022-12-24T05:53:55.342Z,9.78
2022-12-24T05:56:25.394Z,9.79
2022-12-24T05:58:54.710Z,9.83
2022-12-24T06:01:24.825Z,9.84
2022-12-24T06:03:54.092Z,9.85
2022-12-24T06:06:24.741Z,9.82
2022-12-24T06:08:54.540Z,9.81
2022-12-24T06:11:24.867Z,9.84
2022-12-24T06:13:53.964Z,9.92
2022-12-24T06:16:24.877Z,10.03
2022-12-24T06:18:53.753Z,10.15
2022-12-24T06:21:22.420Z,10.32
2022-12-24T06:23:50.948Z,10.43
2022-12-24T06:26:22.068Z,10.52
2022-12-24T06:28:51.909Z,10.56
2022-12-24T06:31:22.321Z,10.58
2022-12-24T06:33:53.413Z,10.58
2022-12-24T06:36:24.555Z,10.63
2022-12-24T06:38:54.467Z,10.71
2022-12-24T06:41:23.750Z,10.72
2022-12-24T06:43:53.890Z,10.73
2022-12-24T06:46:22.837Z,10.77
2022-12-24T06:48:52.745Z,10.79
2022-12-24T06:51:21.516Z,10.79
2022-12-24T06:53:51.553Z,10.79
2022-12-24T06:56:21.035Z,10.76
2022-12-24T06:58:49.449Z,10.76
2022-12-24T07:01:19.555Z,10.71
2022-12-24T07:03:48.846Z,10.68
2022-12-24T07:06:20.692Z,10.62
2022-12-24T07:08:49.017Z,10.60
2022-12-24T07:11:18.094Z,10.58
2022-12-24T07:13:47.709Z,10.56
2022-12-24T07:16:16.737Z,10.54
2022-12-24T07:18:45.322Z,10.52
2022-12-24T07:21:13.765Z,10.51
2022-12-24T07:23:43.668Z,10.50
2022-12-24T07:26:12.134Z,10.50
2022-12-24T07:28:40.495Z,10.48
2022-12-24T07:31:08.920Z,10.46
2022-12-24T07:33:37.336Z,10.43
2022-12-24T07:36:08.081Z,10.44
2022-12-24T07:38:37.076Z,10.45
2022-12-24T07:41:07.125Z,10.42
2022-12-24T07:43:35.478Z,10.46
2022-12-24T07:46:04.186Z,10.49
2022-12-24T07:48:33.498Z,10.51
2022-12-24T07:51:02.208Z,10.51
2022-12-24T07:53:32.104Z,10.52
2022-12-24T07:56:00.653Z,10.54
2022-12-24T07:58:30.382Z,10.53
2022-12-24T08:01:00.577Z,10.58
2022-12-24T08:03:29.459Z,10.61
2022-12-24T08:05:58.492Z,10.65
2022-12-24T08:08:27.303Z,10.67
2022-12-24T08:10:55.690Z,10.67
2022-12-24T08:13:24.067Z,10.68
2022-12-24T08:15:53.893Z,10.70
2022-12-24T08:18:22.250Z,10.72
2022-12-24T08:20:50.805Z,10.73
2022-12-24T08:23:19.508Z,10.72
2022-12-24T08:25:49.271Z,10.71
2022-12-24T08:28:19.909Z,10.71
2022-12-24T08:30:49.639Z,10.73
2022-12-24T08:33:19.812Z,10.74
2022-12-24T08:35:49.950Z,10.78
2022-12-24T08:38:18.705Z,10.79
2022-12-24T08:40:48.960Z,10.78
2022-12-24T08:43:18.241Z,10.80
2022-12-24T08:45:47.406Z,10.79
2022-12-24T08:48:16.456Z,10.78
2022-12-24T08:50:46.325Z,10.78
2022-12-24T08:53:15.109Z,10.77
2022-12-24T08:55:43.505Z,10.78
2022-12-24T08:58:11.981Z,10.80
2022-12-24T09:00:40.418Z,10.81
2022-12-24T09:03:08.788Z,10.84
2022-12-24T09:05:41.140Z,10.88
2022-12-24T09:08:10.853Z,10.92
2022-12-24T09:10:39.214Z,10.92
2022-12-24T09:13:07.610Z,10.96
2022-12-24T09:15:35.925Z,10.97
2022-12-24T09:18:04.763Z,10.99
2022-12-24T09:20:34.557Z,10.99
2022-12-24T09:23:02.952Z,11.00
2022-12-24T09:25:32.737Z,11.03
2022-12-24T09:28:01.406Z,11.06
2022-12-24T09:30:29.727Z,11.06
2022-12-24T09:32:58.094Z,11.09
2022-12-24T09:35:26.507Z,11.11
2022-12-24T09:38:03.008Z,11.15
2022-12-24T09:40:40.606Z,11.17
2022-12-24T09:43:17.256Z,11.19
2022-12-24T09:45:56.248Z,11.21
2022-12-24T09:48:29.084Z,11.23
2022-12-24T09:51:03.346Z,11.26
2022-12-24T09:53:41.080Z,11.28
2022-12-24T09:56:16.431Z,11.31
2022-12-24T09:58:47.891Z,11.34
2022-12-24T10:01:18.703Z,11.36
2022-12-24T10:03:48.068Z,11.35
2022-12-24T10:06:22.325Z,11.38
2022-12-24T10:09:07.077Z,11.39
2022-12-24T10:11:46.138Z,11.41
2022-12-24T10:14:27.289Z,11.43
2022-12-24T10:17:04.236Z,11.48
2022-12-24T10:19:45.221Z,11.50
2022-12-24T10:22:25.695Z,11.51
2022-12-24T10:25:01.460Z,11.54
2022-12-24T10:27:36.757Z,11.54
2022-12-24T10:30:17.321Z,11.56
2022-12-24T10:32:48.929Z,11.58
2022-12-24T10:35:24.179Z,11.58
2022-12-24T10:37:52.738Z,11.59
2022-12-24T10:40:30.138Z,11.62
2022-12-24T10:43:00.161Z,11.64
2022-12-24T10:45:37.564Z,11.67
2022-12-24T10:48:10.590Z,11.68
2022-12-24T10:50:42.556Z,11.68
2022-12-24T10:53:18.780Z,11.68
2022-12-24T10:55:48.775Z,11.69
2022-12-24T10:58:20.834Z,11.68
2022-12-24T11:00:53.406Z,11.68
2022-12-24T11:03:25.761Z,11.67
2022-12-24T11:06:05.958Z,11.66
2022-12-24T11:08:35.013Z,11.63
2022-12-24T11:11:06.035Z,11.65
2022-12-24T11:13:39.719Z,11.63
2022-12-24T11:16:16.618Z,11.63
2022-12-24T11:18:51.903Z,11.61
2022-12-24T11:21:23.107Z,11.62
2022-12-24T11:23:54.035Z,11.63
2022-12-24T11:26:24.589Z,11.65
2022-12-24T11:29:12.509Z,11.68
2022-12-24T11:31:41.034Z,11.70
2022-12-24T11:34:28.724Z,11.71
2022-12-24T11:37:14.839Z,11.74
2022-12-24T11:39:47.651Z,11.73
2022-12-24T11:42:27.454Z,11.74
2022-12-24T11:44:59.046Z,11.75
2022-12-24T11:47:35.296Z,11.75
2022-12-24T11:50:24.995Z,11.76
2022-12-24T11:53:00.279Z,11.75
2022-12-24T11:55:41.761Z,11.76
2022-12-24T11:58:22.566Z,11.74
2022-12-24T12:00:54.013Z,11.72
2022-12-24T12:03:30.142Z,11.71
2022-12-24T12:06:00.959Z,11.72
2022-12-24T12:08:31.315Z,11.74
2022-12-24T12:11:01.033Z,11.75
2022-12-24T12:13:33.490Z,11.77
2022-12-24T12:16:15.684Z,11.80
2022-12-24T12:18:50.377Z,11.87
2022-12-24T12:21:21.738Z,11.94
2022-12-24T12:23:53.779Z,11.97
2022-12-24T12:26:27.335Z,12.04
2022-12-24T12:28:59.732Z,12.11
2022-12-24T12:31:35.442Z,12.17
2022-12-24T12:34:10.363Z,12.22
2022-12-24T12:36:44.860Z,12.26
2022-12-24T12:39:13.240Z,12.31
2022-12-24T12:41:51.830Z,12.46
2022-12-24T12:44:49.839Z,12.49
2022-12-24T12:47:31.617Z,12.40
2022-12-24T12:50:09.713Z,12.33
2022-12-24T12:52:55.440Z,12.25
2022-12-24T12:55:34.710Z,12.18
2022-12-24T12:58:09.478Z,12.14
2022-12-24T13:00:40.504Z,12.14
2022-12-24T13:03:39.884Z,12.12
2022-12-24T13:06:35.598Z,12.10
2022-12-24T13:09:28.307Z,12.09
2022-12-24T13:12:20.825Z,12.07
2022-12-24T13:15:02.609Z,12.05
2022-12-24T13:18:00.871Z,12.07
2022-12-24T13:20:33.108Z,12.11
2022-12-24T13:23:05.111Z,12.11
2022-12-24T13:25:38.268Z,12.13
2022-12-24T13:28:34.150Z,12.15
2022-12-24T13:31:25.714Z,12.13
2022-12-24T13:33:55.858Z,12.12
2022-12-24T13:36:26.055Z,12.10
2022-12-24T13:38:57.152Z,12.12
2022-12-24T13:41:58.915Z,12.14
2022-12-24T13:44:32.929Z,12.29
2022-12-24T13:47:28.152Z,12.29
2022-12-24T13:50:15.507Z,12.20
2022-12-24T13:52:54.124Z,12.12
2022-12-24T13:55:23.531Z,12.06
2022-12-24T13:57:58.790Z,12.02
2022-12-24T14:00:33.137Z,11.98
2022-12-24T14:03:05.907Z,11.93
2022-12-24T14:05:38.612Z,11.90
2022-12-24T14:08:12.604Z,11.89
2022-12-24T14:10:44.797Z,11.86
2022-12-24T14:13:54.889Z,11.83
2022-12-24T14:16:24.620Z,11.82
2022-12-24T14:19:00.771Z,11.82
2022-12-24T14:21:33.097Z,11.78
2022-12-24T14:24:05.309Z,11.75
2022-12-24T14:26:37.796Z,11.72
2022-12-24T14:29:22.839Z,11.69
2022-12-24T14:31:53.796Z,11.67
2022-12-24T14:34:22.920Z,11.66
2022-12-24T14:36:55.463Z,11.63
2022-12-24T14:39:30.540Z,11.63
2022-12-24T14:42:17.361Z,11.59
2022-12-24T14:44:55.814Z,11.55
2022-12-24T14:47:34.712Z,11.50
2022-12-24T14:50:35.471Z,11.46
2022-12-24T14:53:19.042Z,11.43
2022-12-24T14:55:50.484Z,11.41
2022-12-24T14:58:27.929Z,11.40
2022-12-24T15:00:58.916Z,11.37
2022-12-24T15:03:29.018Z,11.35
2022-12-24T15:06:00.474Z,11.32
2022-12-24T15:08:32.099Z,11.30
2022-12-24T15:11:08.314Z,11.25
2022-12-24T15:13:39.983Z,11.17
2022-12-24T15:16:11.858Z,11.12
2022-12-24T15:18:44.463Z,11.08
2022-12-24T15:21:19.900Z,11.04
2022-12-24T15:23:50.538Z,11.00
2022-12-24T15:26:26.947Z,10.97
2022-12-24T15:29:02.790Z,10.92
2022-12-24T15:31:32.891Z,10.88
2022-12-24T15:34:01.537Z,10.85
2022-12-24T15:36:33.889Z,10.82
2022-12-24T15:39:04.157Z,10.79
2022-12-24T15:42:00.225Z,10.76
2022-12-24T15:44:31.025Z,10.73
2022-12-24T15:47:01.125Z,10.69
2022-12-24T15:49:30.866Z,10.63
2022-12-24T15:52:05.644Z,10.61
2022-12-24T15:54:34.576Z,10.58
2022-12-24T15:57:15.801Z,10.52
2022-12-24T15:59:44.340Z,10.44
2022-12-24T16:02:36.593Z,10.33
2022-12-24T16:05:30.968Z,10.23
2022-12-24T16:08:22.053Z,10.18
2022-12-24T16:10:52.905Z,10.14
2022-12-24T16:13:24.802Z,10.11
2022-12-24T16:15:56.507Z,10.11
2022-12-24T16:18:27.665Z,10.12
2022-12-24T16:20:57.664Z,10.14
2022-12-24T16:23:28.236Z,10.15
2022-12-24T16:25:56.691Z,10.16
2022-12-24T16:28:27.650Z,10.14
2022-12-24T16:30:56.885Z,10.14
2022-12-24T16:33:25.248Z,10.14
2022-12-24T16:35:53.796Z,10.16
2022-12-24T16:38:22.554Z,10.14
2022-12-24T16:40:50.821Z,10.13
2022-12-24T16:43:36.696Z,10.13
2022-12-24T16:46:08.743Z,10.12
2022-12-24T16:48:38.937Z,10.13
2022-12-24T16:51:07.273Z,10.13
2022-12-24T16:53:35.638Z,10.13
2022-12-24T16:56:04.029Z,10.13
2022-12-24T16:58:33.070Z,10.11
2022-12-24T17:01:09.965Z,10.11
2022-12-24T17:03:38.637Z,10.10
2022-12-24T17:06:09.323Z,10.11
2022-12-24T17:08:38.179Z,10.10
2022-12-24T17:11:06.911Z,10.10
2022-12-24T17:13:35.368Z,10.11
2022-12-24T17:16:03.955Z,10.11
2022-12-24T17:18:33.761Z,10.10
2022-12-24T17:21:03.689Z,10.08
2022-12-24T17:23:32.110Z,10.06
2022-12-24T17:26:00.576Z,10.07
2022-12-24T17:28:34.845Z,10.06
2022-12-24T17:31:08.080Z,10.05
2022-12-24T17:33:37.943Z,10.05
2022-12-24T17:36:06.873Z,10.06
2022-12-24T17:38:35.251Z,10.06
2022-12-24T17:41:04.125Z,10.07
2022-12-24T17:43:33.761Z,10.09
2022-12-24T17:46:06.309Z,10.07
2022-12-24T17:48:35.187Z,10.05
2022-12-24T17:51:07.138Z,10.04
2022-12-24T17:53:36.438Z,10.02
2022-12-24T17:56:05.554Z,10.01
2022-12-24T17:58:34.108Z,9.99
2022-12-24T18:01:02.466Z,9.98
2022-12-24T18:03:30.887Z,9.99
2022-12-24T18:06:05.240Z,10.00
2022-12-24T18:08:36.018Z,10.00
2022-12-24T18:11:12.083Z,10.01
2022-12-24T18:13:40.932Z,10.00
2022-12-24T18:16:20.534Z,10.01
2022-12-24T18:18:50.251Z,9.99
2022-12-24T18:21:20.263Z,9.98
2022-12-24T18:23:52.090Z,9.96
2022-12-24T18:26:21.133Z,9.98
2022-12-24T18:28:49.505Z,10.00
2022-12-24T18:31:19.754Z,9.98
2022-12-24T18:33:50.345Z,9.95
2022-12-24T18:36:20.198Z,9.92
2022-12-24T18:38:50.046Z,9.88
2022-12-24T18:41:20.790Z,9.86
2022-12-24T18:43:49.327Z,9.84
2022-12-24T18:46:19.877Z,9.84
2022-12-24T18:48:48.877Z,9.82
2022-12-24T18:51:18.403Z,9.81
2022-12-24T18:53:46.814Z,9.78
2022-12-24T18:56:18.875Z,9.76
2022-12-24T18:58:47.508Z,9.75
2022-12-24T19:01:17.782Z,9.72
2022-12-24T19:03:46.327Z,9.73
2022-12-24T19:06:14.740Z,9.72
2022-12-24T19:09:00.736Z,9.71
2022-12-24T19:11:33.751Z,9.69
2022-12-24T19:14:03.173Z,9.66
2022-12-24T19:16:37.035Z,9.68
2022-12-24T19:19:07.269Z,9.67
2022-12-24T19:21:36.236Z,9.64
2022-12-24T19:24:04.937Z,9.63
2022-12-24T19:26:34.621Z,9.64
2022-12-24T19:29:02.945Z,9.62
2022-12-24T19:31:32.244Z,9.61
2022-12-24T19:34:00.777Z,9.59
2022-12-24T19:36:31.089Z,9.58
2022-12-24T19:39:00.259Z,9.56
2022-12-24T19:41:30.656Z,9.55
2022-12-24T19:44:01.647Z,9.56
2022-12-24T19:46:32.967Z,9.56
2022-12-24T19:49:05.065Z,9.55
2022-12-24T19:51:34.200Z,9.55
2022-12-24T19:54:02.879Z,9.53
2022-12-24T19:56:33.180Z,9.52
2022-12-24T19:59:05.120Z,9.51
2022-12-24T20:01:35.112Z,9.50
2022-12-24T20:04:04.137Z,9.50
2022-12-24T20:06:35.354Z,9.47
2022-12-24T20:09:06.024Z,9.46
2022-12-24T20:11:35.187Z,9.45
2022-12-24T20:14:05.845Z,9.45
2022-12-24T20:16:35.387Z,9.45
2022-12-24T20:19:05.774Z,9.42
2022-12-24T20:21:35.212Z,9.41
2022-12-24T20:24:03.625Z,9.40
2022-12-24T20:26:32.055Z,9.39
2022-12-24T20:29:06.532Z,9.37
2022-12-24T20:31:35.435Z,9.35
2022-12-24T20:34:07.364Z,9.34
2022-12-24T20:36:39.590Z,9.33
2022-12-24T20:39:08.111Z,9.34
2022-12-24T20:41:37.309Z,9.34
2022-12-24T20:44:07.194Z,9.35
2022-12-24T20:46:35.716Z,9.36
2022-12-24T20:49:05.253Z,9.38
2022-12-24T20:51:33.841Z,9.35
2022-12-24T20:54:02.189Z,9.35
2022-12-24T20:56:31.872Z,9.35
2022-12-24T20:59:01.311Z,9.34
2022-12-24T21:01:31.585Z,9.34
2022-12-24T21:04:04.423Z,9.33
2022-12-24T21:06:33.768Z,9.34
2022-12-24T21:09:02.781Z,9.34
2022-12-24T21:11:48.723Z,9.34
2022-12-24T21:14:18.133Z,9.33
2022-12-24T21:16:48.466Z,9.34
2022-12-24T21:19:19.248Z,9.34
2022-12-24T21:21:47.942Z,9.33
2022-12-24T21:24:17.118Z,9.31
2022-12-24T21:26:45.454Z,9.27
2022-12-24T21:29:14.629Z,9.27
2022-12-24T21:31:43.964Z,9.26
2022-12-24T21:34:13.821Z,9.24
2022-12-24T21:36:42.676Z,9.23
2022-12-24T21:39:11.047Z,9.22
2022-12-24T21:41:39.381Z,9.23
2022-12-24T21:44:07.711Z,9.26
2022-12-24T21:46:36.269Z,9.27
2022-12-24T21:49:22.351Z,9.29
2022-12-24T21:51:52.073Z,9.27
2022-12-24T21:54:27.408Z,9.28
2022-12-24T21:57:15.855Z,9.27
2022-12-24T21:59:44.499Z,9.27
2022-12-24T22:02:14.638Z,9.28
2022-12-24T22:04:43.997Z,9.29
2022-12-24T22:07:40.001Z,9.29
2022-12-24T22:10:27.096Z,9.29
2022-12-24T22:12:56.295Z,9.29
2022-12-24T22:15:24.659Z,9.27
2022-12-24T22:17:53.240Z,9.23
2022-12-24T22:20:21.674Z,9.25
2022-12-24T22:22:51.568Z,9.26
2022-12-24T22:25:20.054Z,9.28
2022-12-24T22:27:48.450Z,9.29
2022-12-24T22:30:17.009Z,9.30
2022-12-24T22:32:45.420Z,9.29
2022-12-24T22:35:13.804Z,9.29
2022-12-24T22:37:42.170Z,9.29
2022-12-24T22:40:12.971Z,9.25
2022-12-24T22:42:41.963Z,9.23
2022-12-24T22:45:16.973Z,9.23
2022-12-24T22:47:48.734Z,9.20
2022-12-24T22:50:17.202Z,9.19
2022-12-24T22:52:45.869Z,9.19
2022-12-24T22:55:15.782Z,9.19
2022-12-24T22:57:44.101Z,9.19
2022-12-24T23:00:16.835Z,9.18
2022-12-24T23:02:45.336Z,9.18
2022-12-24T23:05:15.453Z,9.19
2022-12-24T23:07:43.925Z,9.20
2022-12-24T23:10:12.247Z,9.23
2022-12-24T23:12:59.541Z,9.25
2022-12-24T23:15:27.907Z,9.29
2022-12-24T23:17:56.274Z,9.32
2022-12-24T23:20:24.672Z,9.35
2022-12-24T23:22:53.017Z,9.36
2022-12-24T23:25:21.429Z,9.36
2022-12-24T23:27:51.255Z,9.37
2022-12-24T23:30:19.803Z,9.36
2022-12-24T23:32:48.359Z,9.33
2022-12-24T23:35:17.021Z,9.34
2022-12-24T23:37:45.348Z,9.33
2022-12-24T23:40:14.301Z,9.30
2022-12-24T23:42:42.709Z,9.30
2022-12-24T23:45:12.691Z,9.30
2022-12-24T23:47:41.488Z,9.28
2022-12-24T23:50:11.657Z,9.26
2022-12-24T23:52:40.218Z,9.25
2022-12-24T23:55:09.030Z,9.25
2022-12-24T23:57:37.442Z,9.23
